KFNL/FNL METAR and TAF weather

Enter ICAO airport designator
Station Type Date Time Source
KFNL METAR 2019/07/15 19:56 UTC NOAA

KFNL 151956Z AUTO 08012G20KT 10SM CLR 31/13 A3013 RMK AO2 LTG DSNT W SLP132 T03110133


Station Type Date Time Source
KFNL Decoded METAR 2019/07/15 19:56 UTC NOAA

Fort Collins/Loveland, Fort Collins-Loveland Municipal Airport, CO, United States (KFNL) 40-27N 105-01W
Jul 15, 2019 - 03:56 PM EDT / 2019.07.15 1956 UTC
Wind: from the E (080 degrees) at 14 MPH (12 KT) gusting to 23 MPH (20 KT):0
Visibility: 10 mile(s):0
Sky conditions: clear
Weather: Lightning observed
Temperature: 88.0 F (31.1 C)
Dew Point: 55.9 F (13.3 C)
Relative Humidity: 33%
Pressure (altimeter): 30.13 in. Hg (1020 hPa)
ob: KFNL 151956Z AUTO 08012G20KT 10SM CLR 31/13 A3013 RMK AO2 LTG DSNT W SLP132 T03110133
cycle: 20

Station Type Date Time Source
KFNL TAF UTC NOAA

Error!

Example: see airport list